AIC241 VOMM-VECC
Flight info
| Callsign | AIC241 |
|---|---|
| Flight time | 1h 50m |
| Altitude | 39000 |
| Route | MMV Q10 CEA |
| Aircraft | A20N/M-SDE2E3FGHIRWXY/LB1 |
Departure
| Time | 2026-04-24 17:04 |
|---|---|
| Airport | Chennai International Airport (VOMM) |
Arrival
| Time | 2026-04-24 18:54 |
|---|---|
| Airport | Netaji Subhash Chandra Bose International Airport (VECC) |
| Time | Latitude | Longitude | Altitude | Speed | Heading |
|---|---|---|---|---|---|
| 2026-04-24 16:44 | 12.98189 | 80.15923 | 54 ft | 0 kts | 160° |
| 2026-04-24 16:49 | 12.98189 | 80.15922 | 54 ft | 0 kts | 160° |
| 2026-04-24 16:51 | 12.98195 | 80.15920 | 51 ft | 2 kts | 160° |
| 2026-04-24 16:51 | 12.98211 | 80.15915 | 53 ft | 2 kts | 165° |
| 2026-04-24 16:51 | 12.98227 | 80.15911 | 50 ft | 2 kts | 165° |
| 2026-04-24 16:51 | 12.98243 | 80.15907 | 52 ft | 2 kts | 167° |
| 2026-04-24 16:52 | 12.98259 | 80.15902 | 49 ft | 2 kts | 156° |
| 2026-04-24 16:52 | 12.98273 | 80.15893 | 47 ft | 2 kts | 137° |
| 2026-04-24 16:52 | 12.98285 | 80.15882 | 48 ft | 2 kts | 134° |
| 2026-04-24 16:52 | 12.98297 | 80.15870 | 52 ft | 2 kts | 133° |
| 2026-04-24 16:53 | 12.98304 | 80.15855 | 47 ft | 2 kts | 97° |
| 2026-04-24 16:53 | 12.98309 | 80.15839 | 46 ft | 2 kts | 110° |
| 2026-04-24 16:53 | 12.98313 | 80.15823 | 48 ft | 2 kts | 109° |
| 2026-04-24 16:53 | 12.98316 | 80.15815 | 48 ft | 0 kts | 111° |
| 2026-04-24 16:58 | 12.98307 | 80.15840 | 50 ft | 13 kts | 108° |
| 2026-04-24 16:58 | 12.98297 | 80.15960 | 54 ft | 21 kts | 73° |
| 2026-04-24 16:58 | 12.98335 | 80.16065 | 52 ft | 9 kts | 71° |
| 2026-04-24 16:58 | 12.98379 | 80.16154 | 54 ft | 18 kts | 36° |
| 2026-04-24 16:59 | 12.98490 | 80.16134 | 52 ft | 12 kts | 342° |
| 2026-04-24 16:59 | 12.98558 | 80.16206 | 52 ft | 20 kts | 71° |
| 2026-04-24 16:59 | 12.98685 | 80.16546 | 55 ft | 33 kts | 70° |
| 2026-04-24 17:00 | 12.98767 | 80.16767 | 54 ft | 34 kts | 70° |
| 2026-04-24 17:00 | 12.98945 | 80.17226 | 54 ft | 33 kts | 60° |
| 2026-04-24 17:00 | 12.99026 | 80.17413 | 53 ft | 29 kts | 69° |
| 2026-04-24 17:01 | 12.99184 | 80.17697 | 55 ft | 1 kts | 351° |
| 2026-04-24 17:01 | 12.99195 | 80.17703 | 54 ft | 3 kts | 33° |
| 2026-04-24 17:02 | 12.99229 | 80.17781 | 56 ft | 12 kts | 69° |
| 2026-04-24 17:02 | 12.99272 | 80.17896 | 54 ft | 22 kts | 69° |
| 2026-04-24 17:02 | 12.99339 | 80.18068 | 57 ft | 29 kts | 69° |
| 2026-04-24 17:02 | 12.99364 | 80.18238 | 62 ft | 24 kts | 80° |
| 2026-04-24 17:03 | 12.99517 | 80.18399 | 56 ft | 4 kts | 41° |
| 2026-04-24 17:03 | 12.99571 | 80.18404 | 58 ft | 12 kts | 326° |
| 2026-04-24 17:03 | 12.99546 | 80.18306 | 59 ft | 23 kts | 249° |
| 2026-04-24 17:04 | 12.99401 | 80.17924 | 57 ft | 90 kts | 246° |
| 2026-04-24 17:04 | 12.98743 | 80.16177 | 585 ft | 138 kts | 247° |
| 2026-04-24 17:04 | 12.98386 | 80.15192 | 842 ft | 164 kts | 246° |
| 2026-04-24 17:05 | 12.97978 | 80.14084 | 1397 ft | 167 kts | 245° |
| 2026-04-24 17:05 | 12.97558 | 80.12972 | 2020 ft | 176 kts | 248° |
| 2026-04-24 17:05 | 12.98201 | 80.10336 | 2875 ft | 226 kts | 317° |
| 2026-04-24 17:06 | 12.99622 | 80.09570 | 3291 ft | 246 kts | 351° |
| 2026-04-24 17:06 | 13.02935 | 80.10675 | 4429 ft | 271 kts | 51° |
| 2026-04-24 17:06 | 13.03810 | 80.12332 | 5387 ft | 266 kts | 78° |
| 2026-04-24 17:07 | 13.03922 | 80.13593 | 5946 ft | 270 kts | 96° |
| 2026-04-24 17:07 | 13.02943 | 80.15940 | 7096 ft | 277 kts | 131° |
| 2026-04-24 17:07 | 12.99837 | 80.18389 | 8746 ft | 285 kts | 125° |
| 2026-04-24 17:08 | 12.98939 | 80.22200 | 10308 ft | 290 kts | 78° |
| 2026-04-24 17:08 | 12.99710 | 80.24165 | 10501 ft | 308 kts | 56° |
| 2026-04-24 17:08 | 13.01103 | 80.25926 | 10661 ft | 327 kts | 49° |
| 2026-04-24 17:09 | 13.04005 | 80.29653 | 11543 ft | 338 kts | 55° |
| 2026-04-24 17:09 | 13.06550 | 80.33739 | 12582 ft | 347 kts | 59° |
| 2026-04-24 17:10 | 13.07785 | 80.35876 | 13377 ft | 350 kts | 59° |
| 2026-04-24 17:10 | 13.11549 | 80.42460 | 15368 ft | 363 kts | 59° |
| 2026-04-24 17:11 | 13.15455 | 80.49275 | 17193 ft | 376 kts | 59° |
| 2026-04-24 17:12 | 13.22296 | 80.61213 | 19761 ft | 399 kts | 59° |
| 2026-04-24 18:54 | 22.64914 | 88.44238 | 28 ft | 13 kts | 187° |
| 2026-04-24 18:55 | 22.64695 | 88.44209 | 28 ft | 18 kts | 187° |
| 2026-04-24 18:55 | 22.64560 | 88.44191 | 28 ft | 21 kts | 187° |
| 2026-04-24 18:55 | 22.64411 | 88.44172 | 28 ft | 23 kts | 187° |
| 2026-04-24 18:56 | 22.64300 | 88.44152 | 28 ft | 9 kts | 216° |
| 2026-04-24 18:56 | 22.64296 | 88.44077 | 28 ft | 9 kts | 275° |
| 2026-04-24 18:56 | 22.64298 | 88.44059 | 28 ft | 0 kts | 275° |